createdAt,value
2019-02-26T00:01:23.411Z,57.86
2019-02-26T00:04:29.772Z,58.69
2019-02-26T00:07:35.124Z,58.09
2019-02-26T00:10:40.382Z,57.64
2019-02-26T00:13:45.629Z,56.18
2019-02-26T00:16:51.055Z,54.68
2019-02-26T00:19:56.373Z,55.05
2019-02-26T00:23:02.030Z,54.23
2019-02-26T00:26:10.453Z,54.12
2019-02-26T00:29:15.740Z,54.17
2019-02-26T00:32:21.026Z,54.29
2019-02-26T00:35:27.632Z,54.32
2019-02-26T00:38:35.319Z,54.77
2019-02-26T00:41:40.490Z,54.31
2019-02-26T00:44:46.057Z,51.83
2019-02-26T00:47:51.306Z,51.98
2019-02-26T00:50:57.301Z,52.33
2019-02-26T00:54:04.127Z,52.16
2019-02-26T00:57:11.591Z,54.03
2019-02-26T01:00:16.749Z,56.44
2019-02-26T01:03:23.641Z,57.76
2019-02-26T01:06:31.050Z,60.84
2019-02-26T01:09:36.220Z,65.05
2019-02-26T01:12:42.601Z,65.48
2019-02-26T01:15:48.027Z,66.19
2019-02-26T01:18:53.427Z,66.08
2019-02-26T01:21:58.809Z,67.41
2019-02-26T01:25:04.136Z,67.45
2019-02-26T01:28:09.435Z,67.47
2019-02-26T01:31:14.726Z,66.91
2019-02-26T01:34:20.448Z,67.76
2019-02-26T01:37:27.841Z,69.02
2019-02-26T01:40:33.661Z,70.21
2019-02-26T01:43:38.851Z,70.38
2019-02-26T01:46:44.130Z,67.73
2019-02-26T01:49:51.093Z,66.55
2019-02-26T01:52:58.491Z,67.46
2019-02-26T01:56:05.104Z,67.01
2019-02-26T01:59:10.501Z,66.45
2019-02-26T02:02:18.108Z,68.52
2019-02-26T02:05:23.777Z,68.45
2019-02-26T02:08:29.684Z,66.86
2019-02-26T02:11:35.886Z,66.03
2019-02-26T02:14:41.894Z,65.69
2019-02-26T02:17:47.161Z,63.58
2019-02-26T02:20:52.458Z,63.80
2019-02-26T02:23:57.676Z,62.76
2019-02-26T02:27:02.931Z,62.39
2019-02-26T02:30:14.448Z,63.25
2019-02-26T02:33:23.589Z,65.64
2019-02-26T02:36:26.459Z,64.16
2019-02-26T02:39:32.060Z,64.27
2019-02-26T02:42:38.370Z,66.32
2019-02-26T02:45:44.489Z,67.39
2019-02-26T02:48:49.831Z,68.02
2019-02-26T02:51:55.159Z,66.75
2019-02-26T02:55:00.445Z,67.02
2019-02-26T02:58:05.794Z,67.24
2019-02-26T03:01:13.697Z,68.18
2019-02-26T03:04:24.744Z,67.56
2019-02-26T03:07:27.468Z,66.70
2019-02-26T03:10:34.590Z,67.21
2019-02-26T03:13:40.412Z,67.13
2019-02-26T03:16:47.957Z,65.76
2019-02-26T03:19:55.843Z,64.24
2019-02-26T03:22:59.943Z,59.82
2019-02-26T03:26:05.233Z,57.14
2019-02-26T03:29:10.551Z,55.53
2019-02-26T03:32:15.916Z,52.93
2019-02-26T03:35:23.388Z,52.59
2019-02-26T03:38:28.909Z,54.35
2019-02-26T03:41:34.284Z,54.40
2019-02-26T03:44:39.699Z,54.55
2019-02-26T03:47:44.971Z,54.83
2019-02-26T03:50:51.351Z,55.25
2019-02-26T03:53:56.694Z,56.22
2019-02-26T03:57:02.220Z,55.43
2019-02-26T04:00:08.753Z,58.20
2019-02-26T04:03:17.287Z,61.79
2019-02-26T04:06:22.030Z,61.35
2019-02-26T04:09:27.345Z,57.81
2019-02-26T04:12:36.080Z,56.01
2019-02-26T04:15:39.574Z,58.11
2019-02-26T04:18:45.020Z,58.03
2019-02-26T04:22:26.506Z,60.14
2019-02-26T04:25:40.643Z,59.93
2019-02-26T04:29:09.335Z,61.55
2019-02-26T04:32:50.646Z,61.71
2019-02-26T04:36:44.737Z,62.00
2019-02-26T04:40:14.121Z,62.20
2019-02-26T04:43:45.696Z,61.96
2019-02-26T04:47:05.916Z,60.87
2019-02-26T04:50:10.304Z,61.05
2019-02-26T04:53:15.710Z,60.43
2019-02-26T04:56:21.071Z,59.91
2019-02-26T04:59:26.470Z,59.84
2019-02-26T05:02:34.433Z,57.50
2019-02-26T05:05:39.766Z,58.66
2019-02-26T05:08:45.104Z,58.00
2019-02-26T05:11:50.478Z,57.76
2019-02-26T05:14:55.839Z,55.51
2019-02-26T05:18:01.150Z,56.53
2019-02-26T05:21:08.314Z,60.28
2019-02-26T05:24:17.438Z,60.23
2019-02-26T05:27:22.708Z,60.04
2019-02-26T05:30:27.305Z,59.91
2019-02-26T05:33:32.871Z,59.99
2019-02-26T05:36:40.308Z,59.56
2019-02-26T05:39:46.855Z,59.81
2019-02-26T05:42:53.423Z,60.40
2019-02-26T05:46:00.702Z,61.13
2019-02-26T05:49:09.758Z,60.28
2019-02-26T05:52:13.464Z,58.80
2019-02-26T05:55:20.591Z,58.50
2019-02-26T05:58:25.723Z,57.06
2019-02-26T06:01:31.033Z,57.24
2019-02-26T06:04:38.418Z,58.68
2019-02-26T06:07:43.412Z,60.05
2019-02-26T06:10:48.817Z,58.98
2019-02-26T06:13:56.306Z,57.69
2019-02-26T06:17:02.659Z,56.75
2019-02-26T06:20:14.421Z,55.66
2019-02-26T06:23:19.715Z,56.08
2019-02-26T06:26:28.161Z,55.64
2019-02-26T06:29:32.647Z,55.96
2019-02-26T06:32:40.155Z,55.79
2019-02-26T06:35:46.066Z,55.22
2019-02-26T06:38:52.137Z,55.52
2019-02-26T06:41:58.387Z,55.17
2019-02-26T06:45:06.497Z,55.78
2019-02-26T06:48:14.640Z,55.92
2019-02-26T06:51:21.286Z,55.68
2019-02-26T06:54:26.677Z,55.00
2019-02-26T06:57:33.314Z,54.58
2019-02-26T07:00:38.594Z,54.40
2019-02-26T07:03:43.859Z,55.21
2019-02-26T07:06:49.086Z,55.05
2019-02-26T07:09:57.532Z,54.99
2019-02-26T07:13:02.226Z,54.32
2019-02-26T07:16:08.450Z,54.80
2019-02-26T07:19:16.538Z,54.86
2019-02-26T07:22:22.229Z,54.41
2019-02-26T07:25:27.587Z,53.74
2019-02-26T07:28:32.941Z,52.72
2019-02-26T07:31:38.330Z,53.09
2019-02-26T07:34:45.203Z,52.14
2019-02-26T07:37:52.361Z,52.30
2019-02-26T07:40:59.593Z,51.29
2019-02-26T07:44:08.692Z,51.89
2019-02-26T07:47:11.562Z,48.57
2019-02-26T07:50:17.444Z,50.79
2019-02-26T07:53:24.927Z,50.16
2019-02-26T07:56:32.612Z,52.16
2019-02-26T07:59:39.859Z,58.24
2019-02-26T08:02:44.175Z,58.72
2019-02-26T08:05:50.953Z,61.13
2019-02-26T08:08:56.353Z,62.07
2019-02-26T08:12:02.437Z,58.30
2019-02-26T08:15:12.614Z,60.97
2019-02-26T08:18:17.559Z,61.16
2019-02-26T08:21:24.726Z,62.55
2019-02-26T08:24:29.809Z,62.00
2019-02-26T08:27:37.909Z,62.44
2019-02-26T08:30:45.210Z,58.41
2019-02-26T08:33:51.871Z,54.79
2019-02-26T08:36:57.288Z,55.18
2019-02-26T08:40:02.498Z,56.69
2019-02-26T08:43:09.451Z,58.15
2019-02-26T08:46:17.135Z,58.66
2019-02-26T08:49:22.817Z,59.28
2019-02-26T08:52:29.390Z,60.39
2019-02-26T08:55:34.877Z,61.56
2019-02-26T08:58:41.141Z,63.40
2019-02-26T09:01:47.089Z,63.63
2019-02-26T09:04:53.529Z,59.65
2019-02-26T09:07:58.799Z,59.76
2019-02-26T09:11:06.308Z,58.46
2019-02-26T09:14:12.128Z,56.31
2019-02-26T09:17:20.877Z,61.52
2019-02-26T09:20:25.058Z,61.81
2019-02-26T09:23:31.014Z,65.77
2019-02-26T09:26:37.269Z,65.90
2019-02-26T09:29:49.603Z,64.31
2019-02-26T09:32:52.596Z,63.09
2019-02-26T09:35:58.091Z,61.64
2019-02-26T09:39:05.783Z,58.14
2019-02-26T09:42:11.533Z,56.97
2019-02-26T09:45:20.382Z,54.39
2019-02-26T09:48:24.853Z,53.06
2019-02-26T09:51:30.627Z,52.97
2019-02-26T09:54:40.269Z,51.50
2019-02-26T09:57:46.478Z,53.18
2019-02-26T10:00:53.933Z,52.52
2019-02-26T10:04:00.837Z,52.51
2019-02-26T10:07:08.874Z,54.01
2019-02-26T10:10:14.491Z,55.00
2019-02-26T10:13:21.091Z,55.03
2019-02-26T10:16:28.283Z,53.71
2019-02-26T10:19:35.558Z,52.58
2019-02-26T10:22:40.614Z,56.51
2019-02-26T10:25:47.514Z,56.90
2019-02-26T10:28:58.118Z,56.45
2019-02-26T10:31:59.947Z,58.42
2019-02-26T10:35:06.494Z,59.11
2019-02-26T10:38:12.330Z,59.37
2019-02-26T10:41:17.623Z,59.41
2019-02-26T10:44:22.848Z,58.28
2019-02-26T10:47:29.906Z,58.01
2019-02-26T10:50:37.290Z,57.77
2019-02-26T10:53:43.193Z,56.17
2019-02-26T10:56:48.539Z,56.17
2019-02-26T10:59:56.970Z,56.34
2019-02-26T11:03:00.914Z,52.80
2019-02-26T11:06:09.912Z,53.81
2019-02-26T11:09:18.326Z,51.10
2019-02-26T11:12:22.739Z,51.70
2019-02-26T11:15:31.199Z,52.64
2019-02-26T11:18:37.398Z,50.76
2019-02-26T11:21:42.580Z,51.30
2019-02-26T11:24:48.528Z,49.55
2019-02-26T11:27:54.847Z,48.19
2019-02-26T11:31:00.203Z,49.67
2019-02-26T11:34:09.210Z,47.50
2019-02-26T11:37:14.843Z,49.17
2019-02-26T11:40:22.164Z,48.23
2019-02-26T11:43:28.911Z,46.40
2019-02-26T11:46:34.435Z,48.04
2019-02-26T11:49:41.667Z,48.38
2019-02-26T11:52:46.837Z,49.29
2019-02-26T11:55:54.496Z,48.60
2019-02-26T11:58:59.033Z,46.98
2019-02-26T12:02:06.259Z,47.91
2019-02-26T12:05:11.342Z,47.05
2019-02-26T12:08:19.374Z,47.39
2019-02-26T12:11:23.613Z,47.00
2019-02-26T12:14:28.823Z,47.18
2019-02-26T12:17:35.689Z,46.87
2019-02-26T12:20:43.037Z,44.89
2019-02-26T12:23:47.913Z,44.70
2019-02-26T12:26:54.729Z,41.73
2019-02-26T12:30:00.186Z,44.21
2019-02-26T12:33:07.709Z,42.64
2019-02-26T12:36:13.611Z,44.95
2019-02-26T12:39:21.392Z,44.69
2019-02-26T12:42:25.958Z,45.85
2019-02-26T12:45:34.209Z,45.11
2019-02-26T12:48:44.216Z,42.32
2019-02-26T12:51:47.603Z,40.08
2019-02-26T12:54:54.941Z,36.96
2019-02-26T12:58:00.363Z,37.50
2019-02-26T13:01:05.681Z,31.86
2019-02-26T13:04:12.979Z,30.90
2019-02-26T13:07:18.003Z,31.11
2019-02-26T13:10:23.929Z,31.12
2019-02-26T13:13:29.216Z,31.84
2019-02-26T13:16:35.584Z,30.82
2019-02-26T13:19:40.814Z,30.30
2019-02-26T13:22:47.723Z,29.03
2019-02-26T13:25:53.048Z,30.32
2019-02-26T13:29:00.344Z,31.01
2019-02-26T13:32:08.019Z,30.24
2019-02-26T13:35:13.809Z,30.62
2019-02-26T13:38:24.215Z,34.18
2019-02-26T13:41:29.895Z,33.94
2019-02-26T13:44:33.227Z,36.97
2019-02-26T13:47:38.637Z,35.49
2019-02-26T13:50:43.908Z,33.60
2019-02-26T13:53:50.741Z,34.01
2019-02-26T13:56:56.049Z,33.08
2019-02-26T14:00:01.369Z,34.74
2019-02-26T14:03:08.162Z,34.68
2019-02-26T14:06:13.489Z,35.32
2019-02-26T14:09:18.822Z,34.54
2019-02-26T14:12:24.291Z,36.94
2019-02-26T14:15:29.990Z,36.41
2019-02-26T14:18:35.304Z,36.37
2019-02-26T14:21:40.547Z,35.95
2019-02-26T14:24:45.786Z,35.67
2019-02-26T14:27:51.085Z,35.81
2019-02-26T14:30:56.357Z,36.46
2019-02-26T14:34:01.613Z,37.25
2019-02-26T14:37:06.895Z,36.05
2019-02-26T14:40:13.080Z,37.48
2019-02-26T14:43:18.451Z,38.96
2019-02-26T14:46:23.748Z,39.96
2019-02-26T14:49:29.102Z,38.09
2019-02-26T14:52:34.343Z,37.25
2019-02-26T14:55:41.637Z,38.03
2019-02-26T14:58:46.663Z,38.96
2019-02-26T15:01:52.184Z,39.68
2019-02-26T15:04:57.523Z,39.85
2019-02-26T15:08:02.814Z,40.22
2019-02-26T15:11:08.219Z,38.96
2019-02-26T15:14:13.553Z,40.17
2019-02-26T15:17:18.897Z,41.25
2019-02-26T15:20:24.235Z,40.73
2019-02-26T15:23:29.552Z,40.73
2019-02-26T15:26:34.813Z,41.10
2019-02-26T15:29:40.112Z,41.75
2019-02-26T15:32:45.644Z,41.86
2019-02-26T15:35:50.962Z,41.14
2019-02-26T15:38:56.192Z,41.47
2019-02-26T15:42:01.534Z,39.64
2019-02-26T15:45:09.485Z,39.64
2019-02-26T15:48:14.743Z,40.14
2019-02-26T15:51:20.772Z,40.27
2019-02-26T15:54:27.304Z,40.65
2019-02-26T15:57:32.589Z,40.25
2019-02-26T16:00:38.531Z,40.39
2019-02-26T16:03:43.898Z,40.29
2019-02-26T16:06:49.232Z,40.57
2019-02-26T16:09:54.531Z,40.61
2019-02-26T16:13:04.577Z,40.25
2019-02-26T16:16:09.927Z,41.12
2019-02-26T16:19:15.208Z,41.14
2019-02-26T16:22:20.508Z,41.64
2019-02-26T16:25:26.817Z,42.08
2019-02-26T16:28:32.107Z,42.66
2019-02-26T16:31:37.374Z,42.87
2019-02-26T16:34:42.723Z,42.90
2019-02-26T16:37:48.013Z,42.91
2019-02-26T16:40:53.652Z,43.93
2019-02-26T16:44:00.501Z,44.93
2019-02-26T16:47:06.441Z,44.65
2019-02-26T16:50:13.831Z,45.90
2019-02-26T16:53:20.238Z,46.73
2019-02-26T16:56:25.539Z,46.94
2019-02-26T16:59:30.913Z,45.96
2019-02-26T17:02:36.188Z,46.85
2019-02-26T17:05:41.483Z,47.19
2019-02-26T17:08:47.325Z,46.56
2019-02-26T17:11:53.281Z,47.03
2019-02-26T17:14:58.662Z,47.30
2019-02-26T17:18:04.877Z,47.55
2019-02-26T17:21:10.226Z,47.73
2019-02-26T17:24:15.518Z,47.87
2019-02-26T17:27:20.914Z,47.96
2019-02-26T17:30:26.288Z,49.09
2019-02-26T17:33:33.076Z,48.95
2019-02-26T17:36:38.373Z,48.91
2019-02-26T17:39:43.662Z,48.86
2019-02-26T17:42:51.250Z,48.81
2019-02-26T17:45:56.048Z,49.03
2019-02-26T17:49:02.863Z,49.61
2019-02-26T17:52:08.355Z,50.33
2019-02-26T17:55:13.707Z,50.97
2019-02-26T17:58:19.158Z,51.33
2019-02-26T18:01:24.559Z,50.93
2019-02-26T18:04:29.897Z,50.93
2019-02-26T18:07:38.389Z,50.06
2019-02-26T18:10:42.294Z,50.60
2019-02-26T18:13:47.673Z,51.34
2019-02-26T18:16:52.961Z,47.64
2019-02-26T18:19:58.253Z,47.62
2019-02-26T18:23:04.766Z,48.26
2019-02-26T18:26:12.807Z,48.65
2019-02-26T18:29:18.178Z,48.17
2019-02-26T18:32:23.455Z,48.05
2019-02-26T18:35:28.735Z,47.57
2019-02-26T18:38:34.118Z,47.79
2019-02-26T18:41:39.517Z,47.91
2019-02-26T18:44:44.944Z,48.18
2019-02-26T18:47:50.359Z,47.61
2019-02-26T18:50:55.638Z,47.36
2019-02-26T18:54:00.891Z,46.65
2019-02-26T18:57:06.154Z,46.66
2019-02-26T19:00:13.932Z,46.59
2019-02-26T19:03:20.790Z,45.53
2019-02-26T19:06:26.988Z,45.51
2019-02-26T19:09:33.845Z,45.75
2019-02-26T19:12:40.689Z,45.93
2019-02-26T19:15:47.919Z,46.16
2019-02-26T19:18:52.930Z,45.98
2019-02-26T19:21:58.991Z,45.81
2019-02-26T19:25:06.777Z,46.10
2019-02-26T19:28:11.707Z,45.93
2019-02-26T19:31:17.058Z,45.82
2019-02-26T19:34:22.292Z,45.59
2019-02-26T19:37:27.597Z,45.33
2019-02-26T19:40:38.796Z,44.40
2019-02-26T19:43:42.471Z,45.70
2019-02-26T19:46:49.658Z,45.72
2019-02-26T19:49:55.899Z,45.01
2019-02-26T19:53:02.469Z,44.08
2019-02-26T19:56:08.225Z,44.63
2019-02-26T19:59:14.253Z,45.16
2019-02-26T20:02:20.787Z,44.69
2019-02-26T20:05:26.077Z,45.02
2019-02-26T20:08:31.412Z,44.94
2019-02-26T20:11:36.754Z,45.46
2019-02-26T20:14:42.056Z,45.51
2019-02-26T20:17:49.123Z,45.65
2019-02-26T20:20:54.523Z,45.88
2019-02-26T20:23:59.868Z,45.13
2019-02-26T20:27:05.266Z,46.06
2019-02-26T20:30:12.532Z,46.48
2019-02-26T20:33:19.452Z,46.68
2019-02-26T20:36:24.703Z,46.94
2019-02-26T20:39:30.113Z,47.13
2019-02-26T20:42:35.376Z,47.33
2019-02-26T20:45:40.720Z,47.00
2019-02-26T20:48:46.150Z,47.17
2019-02-26T20:51:51.732Z,48.17
2019-02-26T20:54:57.103Z,48.64
2019-02-26T20:58:02.427Z,47.84
2019-02-26T21:01:07.760Z,47.44
2019-02-26T21:04:13.062Z,47.59
2019-02-26T21:07:21.797Z,48.28
2019-02-26T21:10:26.441Z,49.51
2019-02-26T21:13:34.595Z,50.97
2019-02-26T21:16:38.812Z,51.22
2019-02-26T21:19:44.233Z,51.85
2019-02-26T21:22:54.607Z,52.72
2019-02-26T21:25:57.538Z,53.11
2019-02-26T21:29:05.555Z,52.56
2019-02-26T21:32:09.810Z,53.26
2019-02-26T21:35:15.100Z,53.28
2019-02-26T21:38:20.356Z,52.35
2019-02-26T21:41:25.627Z,53.22
2019-02-26T21:44:30.925Z,52.58
2019-02-26T21:47:36.196Z,53.40
2019-02-26T21:50:41.477Z,52.73
2019-02-26T21:53:49.192Z,51.76
2019-02-26T21:56:53.784Z,50.39
2019-02-26T21:59:59.125Z,50.72
2019-02-26T22:03:04.460Z,51.00
2019-02-26T22:06:11.496Z,50.68
2019-02-26T22:09:16.987Z,49.97
2019-02-26T22:12:24.743Z,49.07
2019-02-26T22:15:30.102Z,47.17
2019-02-26T22:18:35.386Z,45.93
2019-02-26T22:21:51.837Z,45.22
2019-02-26T22:24:55.509Z,44.14
2019-02-26T22:28:01.811Z,43.63
2019-02-26T22:31:07.051Z,44.02
2019-02-26T22:34:16.765Z,43.54
2019-02-26T22:37:21.502Z,45.86
2019-02-26T22:40:29.221Z,48.88
2019-02-26T22:43:33.776Z,50.78
2019-02-26T22:46:39.181Z,50.77
2019-02-26T22:49:45.444Z,50.87
2019-02-26T22:52:50.750Z,50.93
2019-02-26T22:55:56.014Z,51.33
2019-02-26T22:59:01.375Z,52.64
2019-02-26T23:02:09.893Z,53.37
2019-02-26T23:05:16.306Z,53.66
2019-02-26T23:08:21.702Z,53.99
2019-02-26T23:11:31.688Z,54.65
2019-02-26T23:14:35.912Z,54.51
2019-02-26T23:17:42.839Z,54.73
2019-02-26T23:20:48.232Z,54.53
2019-02-26T23:23:54.814Z,55.27
2019-02-26T23:27:01.088Z,55.15
2019-02-26T23:30:08.506Z,54.63
2019-02-26T23:33:15.772Z,54.94
2019-02-26T23:36:21.155Z,54.70
2019-02-26T23:39:28.010Z,54.07
2019-02-26T23:42:38.788Z,53.82
2019-02-26T23:45:41.635Z,53.25
2019-02-26T23:48:49.991Z,53.36
2019-02-26T23:51:55.297Z,54.48
2019-02-26T23:55:00.531Z,53.06
2019-02-26T23:58:05.821Z,54.46
